Time;durP1;ratioP1;P1;durP2;ratioP2;P2;SDS_P1;SDS_P2;PMS_P1;PMS_P2;Temp;Humidity;BMP_temperature;BMP_pressure;BME280_temperature;BME280_humidity;BME280_pressure;Samples;Min_cycle;Max_cycle;Signal;HPM_P1;HPM_P2
2022/10/19 00:00:50;;;;;;;18.33;5.30;;;;;;;7.80;100.00;102702.09;5055561;28;20036;-63
2022/10/19 00:03:15;;;;;;;18.35;5.47;;;;;;;7.78;100.00;102703.78;5055586;28;20032;-64
2022/10/19 00:05:41;;;;;;;17.45;4.97;;;;;;;7.71;100.00;102704.34;5055398;28;20037;-64
2022/10/19 00:08:07;;;;;;;16.63;4.72;;;;;;;7.70;100.00;102705.16;5055447;28;20028;-64
2022/10/19 00:10:33;;;;;;;17.33;5.13;;;;;;;7.75;100.00;102693.13;5055519;28;20032;-66
2022/10/19 00:12:58;;;;;;;18.80;5.30;;;;;;;7.72;100.00;102693.88;5055398;28;20029;-66
2022/10/19 00:15:24;;;;;;;17.33;4.80;;;;;;;7.61;100.00;102687.22;5055332;28;20400;-66
2022/10/19 00:17:49;;;;;;;16.55;4.78;;;;;;;7.66;100.00;102690.97;5055352;28;20024;-65
2022/10/19 00:20:14;;;;;;;17.48;4.63;;;;;;;7.61;100.00;102695.09;5055309;28;20036;-65
2022/10/19 00:22:40;;;;;;;16.50;4.78;;;;;;;7.61;100.00;102697.75;5055038;28;20032;-65
2022/10/19 00:25:06;;;;;;;19.30;4.88;;;;;;;7.61;100.00;102692.47;5055599;28;20029;-65
2022/10/19 00:27:31;;;;;;;16.13;4.80;;;;;;;7.54;100.00;102688.63;5053739;28;20047;-66
2022/10/19 00:29:56;;;;;;;16.25;4.80;;;;;;;7.43;100.00;102684.63;5048930;28;20095;-66
2022/10/19 00:32:22;;;;;;;14.63;4.07;;;;;;;7.29;100.00;102686.59;5051523;28;20135;-66
2022/10/19 00:34:47;;;;;;;16.83;4.35;;;;;;;7.22;100.00;102688.03;5054760;28;20115;-66
2022/10/19 00:37:12;;;;;;;12.93;3.92;;;;;;;7.17;100.00;102686.94;5055365;28;20029;-66
2022/10/19 00:39:38;;;;;;;17.23;4.90;;;;;;;7.16;100.00;102682.50;5054977;28;20120;-64
2022/10/19 00:42:04;;;;;;;17.63;5.30;;;;;;;7.07;100.00;102672.44;5054515;28;20124;-65
2022/10/19 00:44:29;;;;;;;19.23;5.50;;;;;;;7.00;100.00;102677.34;5053695;28;20045;-65
2022/10/19 00:47:06;;;;;;;17.95;5.32;;;;;;;6.96;100.00;102676.25;5054734;28;20100;-66
2022/10/19 00:49:36;;;;;;;17.13;5.07;;;;;;;6.94;100.00;102678.81;5051659;28;20383;-66
2022/10/19 00:52:09;;;;;;;18.95;5.60;;;;;;;7.01;100.00;102684.41;5054427;28;20025;-66
2022/10/19 00:54:36;;;;;;;;;;;;;;;7.03;100.00;102685.38;5055403;28;20024;-65
2022/10/19 00:57:04;;;;;;;15.52;4.70;;;;;;;7.03;100.00;102688.00;5054574;28;19932;-65
2022/10/19 00:59:33;;;;;;;17.35;5.20;;;;;;;6.95;100.00;102685.00;5054739;28;20029;-65
2022/10/19 01:02:01;;;;;;;16.65;5.10;;;;;;;6.89;100.00;102695.22;5054876;28;20121;-66
2022/10/19 01:04:28;;;;;;;17.75;5.13;;;;;;;6.92;100.00;102688.38;5050653;28;20025;-65
2022/10/19 01:06:55;;;;;;;16.25;5.03;;;;;;;6.88;100.00;102690.78;5050069;28;20056;-65
2022/10/19 01:09:20;;;;;;;18.67;5.90;;;;;;;6.85;100.00;102686.28;5049058;28;20471;-66
2022/10/19 01:12:04;;;;;;;18.98;5.95;;;;;;;6.86;100.00;102687.16;5054199;28;20041;-65
2022/10/19 01:14:48;;;;;;;20.33;5.97;;;;;;;6.79;100.00;102684.25;5054129;28;20110;-65
2022/10/19 01:17:24;;;;;;;21.67;6.30;;;;;;;6.78;100.00;102678.91;5053892;28;20535;-65
2022/10/19 01:20:17;;;;;;;19.27;6.20;;;;;;;6.75;100.00;102676.13;5054061;28;20037;-65
2022/10/19 01:22:54;;;;;;;18.73;6.13;;;;;;;6.70;100.00;102678.53;5051242;28;20025;-65
2022/10/19 01:25:22;;;;;;;19.92;6.53;;;;;;;6.70;100.00;102686.44;5054127;28;20037;-65
2022/10/19 01:28:41;;;;;;;20.90;7.00;;;;;;;6.73;100.00;102693.56;5053989;28;20017;-65
2022/10/19 01:31:17;;;;;;;18.92;6.53;;;;;;;6.77;100.00;102687.63;5068234;28;20041;-65
2022/10/19 01:34:13;;;;;;;22.80;8.40;;;;;;;6.86;100.00;102679.28;5071845;28;20036;-65
2022/10/19 01:36:47;;;;;;;20.90;8.48;;;;;;;6.92;100.00;102680.50;5068472;28;20113;-65
2022/10/19 01:39:40;;;;;;;20.77;8.20;;;;;;;6.89;100.00;102668.94;5071298;28;20127;-66
2022/10/19 01:42:15;;;;;;;23.38;8.77;;;;;;;6.90;100.00;102671.63;5071484;28;20059;-65
2022/10/19 01:44:57;;;;;;;23.05;9.27;;;;;;;6.94;100.00;102681.44;5071529;28;20107;-66
2022/10/19 01:47:28;;;;;;;22.17;8.38;;;;;;;6.83;100.00;102680.06;5071407;28;20025;-65
2022/10/19 01:49:57;;;;;;;22.58;9.40;;;;;;;6.91;100.00;102677.78;5071337;28;20079;-65
2022/10/19 01:52:25;;;;;;;22.38;8.50;;;;;;;6.89;100.00;102679.47;5071308;28;20040;-66
2022/10/19 01:54:54;;;;;;;21.58;9.13;;;;;;;6.90;100.00;102678.59;5054202;28;20033;-66
2022/10/19 01:57:29;;;;;;;22.08;8.98;;;;;;;6.87;100.00;102679.34;5071213;28;20043;-66
2022/10/19 01:59:56;;;;;;;21.38;8.18;;;;;;;6.91;100.00;102676.03;5071124;28;20040;-66
2022/10/19 02:02:24;;;;;;;23.58;9.65;;;;;;;6.94;100.00;102667.41;5054378;28;20032;-66
2022/10/19 02:04:51;;;;;;;23.85;10.55;;;;;;;6.93;100.00;102671.78;5053152;28;20021;-66
2022/10/19 02:07:19;;;;;;;24.48;10.30;;;;;;;6.93;100.00;102662.97;5053332;28;20028;-65
2022/10/19 02:09:45;;;;;;;24.60;10.65;;;;;;;6.87;100.00;102647.81;5053639;28;20107;-66
2022/10/19 02:12:12;;;;;;;23.88;10.00;;;;;;;6.82;100.00;102646.69;5053112;28;20108;-66
2022/10/19 02:14:45;;;;;;;23.45;10.27;;;;;;;6.85;100.00;102652.09;5053204;28;20029;-66
2022/10/19 02:17:15;;;;;;;24.35;10.18;;;;;;;6.82;100.00;102641.44;5050056;28;20029;-66
2022/10/19 02:19:41;;;;;;;23.27;10.07;;;;;;;6.78;100.00;102639.47;5052960;28;20036;-66
2022/10/19 02:22:07;;;;;;;22.30;9.90;;;;;;;6.75;100.00;102634.06;5053218;28;20029;-66
2022/10/19 02:24:32;;;;;;;22.08;10.13;;;;;;;6.71;100.00;102633.00;5053124;28;20372;-66
2022/10/19 02:26:59;;;;;;;25.88;10.80;;;;;;;6.72;100.00;102633.94;5051402;28;20036;-66
2022/10/19 02:29:25;;;;;;;24.38;10.95;;;;;;;6.70;100.00;102625.06;5052892;28;20028;-66
2022/10/19 02:31:51;;;;;;;27.55;10.88;;;;;;;6.64;100.00;102628.31;5053127;28;20025;-66
2022/10/19 02:34:16;;;;;;;22.63;10.30;;;;;;;6.58;100.00;102628.00;5052937;28;20033;-64
2022/10/19 02:36:42;;;;;;;23.52;9.82;;;;;;;6.49;100.00;102628.44;5052834;28;20033;-64
2022/10/19 02:39:08;;;;;;;23.58;9.93;;;;;;;6.46;100.00;102625.66;5053177;28;20025;-63
2022/10/19 02:41:41;;;;;;;23.77;10.23;;;;;;;6.45;100.00;102624.78;5051251;28;20480;-63
2022/10/19 02:44:33;;;;;;;24.05;10.05;;;;;;;6.47;100.00;102616.97;5049190;28;20039;-64
2022/10/19 02:47:05;;;;;;;22.13;9.68;;;;;;;6.39;100.00;102619.22;5038604;28;20033;-64
2022/10/19 02:49:34;;;;;;;23.02;9.95;;;;;;;6.42;100.00;102618.44;5041035;28;20102;-64
2022/10/19 02:52:08;;;;;;;22.13;9.55;;;;;;;6.37;100.00;102609.47;5039486;28;20045;-64
2022/10/19 02:54:34;;;;;;;23.17;9.55;;;;;;;6.30;100.00;102613.50;5040665;28;20384;-64
2022/10/19 02:56:59;;;;;;;21.17;9.05;;;;;;;6.25;100.00;102618.50;5040770;28;20025;-64
2022/10/19 02:59:25;;;;;;;25.08;9.63;;;;;;;6.17;100.00;102625.09;5041638;28;20029;-63
2022/10/19 03:01:51;;;;;;;22.90;9.38;;;;;;;6.16;100.00;102620.69;5038989;28;20112;-64
2022/10/19 03:04:16;;;;;;;22.45;9.88;;;;;;;6.16;100.00;102610.19;5039718;28;20500;-64
2022/10/19 03:06:42;;;;;;;24.92;10.98;;;;;;;6.19;100.00;102610.34;5042147;28;20025;-63
2022/10/19 03:09:07;;;;;;;22.95;10.25;;;;;;;6.20;100.00;102609.50;5039420;28;20041;-64
2022/10/19 03:11:33;;;;;;;23.63;10.23;;;;;;;6.20;100.00;102614.75;5040391;28;20128;-63
2022/10/19 03:13:58;;;;;;;23.77;10.60;;;;;;;6.13;100.00;102619.63;5040834;28;20383;-64
2022/10/19 03:16:23;;;;;;;22.55;10.27;;;;;;;6.14;100.00;102617.06;5039079;28;20172;-63
2022/10/19 03:18:49;;;;;;;23.40;10.88;;;;;;;6.13;100.00;102620.53;5041794;28;20029;-64
2022/10/19 03:21:15;;;;;;;22.13;9.80;;;;;;;6.10;100.00;102615.09;5038765;28;20119;-64
2022/10/19 03:23:41;;;;;;;22.83;9.50;;;;;;;6.00;100.00;102619.00;5033516;28;20040;-63
2022/10/19 03:26:09;;;;;;;22.52;8.65;;;;;;;5.86;100.00;102628.75;5052194;28;20027;-63
2022/10/19 03:28:34;;;;;;;21.02;8.90;;;;;;;5.90;100.00;102622.84;5052296;28;20096;-64
2022/10/19 03:31:00;;;;;;;21.98;9.75;;;;;;;5.91;100.00;102614.16;5051987;28;20499;-64
2022/10/19 03:33:25;;;;;;;20.35;9.05;;;;;;;5.83;100.00;102614.56;5052425;28;20048;-64
2022/10/19 03:36:10;;;;;;;22.13;9.68;;;;;;;5.86;100.00;102614.72;5052470;28;20480;-64
2022/10/19 03:38:35;;;;;;;22.27;9.77;;;;;;;5.79;100.00;102610.88;5052206;28;20032;-64
2022/10/19 03:41:04;;;;;;;22.48;9.30;;;;;;;5.74;100.00;102615.88;5052184;28;20029;-64
2022/10/19 03:43:30;;;;;;;22.13;9.02;;;;;;;5.66;100.00;102616.31;5051820;28;20041;-65
2022/10/19 03:45:55;;;;;;;22.88;9.73;;;;;;;5.72;100.00;102614.00;5052162;28;20037;-66
2022/10/19 03:48:21;;;;;;;21.42;8.93;;;;;;;5.71;100.00;102614.84;5051902;28;20025;-66
2022/10/19 03:50:46;;;;;;;23.65;9.30;;;;;;;5.63;100.00;102610.91;5051047;28;20128;-66
2022/10/19 03:53:11;;;;;;;22.20;10.18;;;;;;;5.65;100.00;102620.66;5052216;28;20021;-66
2022/10/19 03:55:37;;;;;;;20.75;9.00;;;;;;;5.65;100.00;102614.50;5051998;28;20555;-66
2022/10/19 03:58:02;;;;;;;20.75;8.98;;;;;;;5.62;100.00;102616.97;5052073;28;20383;-66
2022/10/19 04:00:27;;;;;;;22.17;9.50;;;;;;;5.64;100.00;102621.47;5051738;28;20116;-66
2022/10/19 04:02:52;;;;;;;23.38;10.20;;;;;;;5.64;100.00;102631.09;5055752;28;20074;-65
2022/10/19 04:05:18;;;;;;;23.15;9.98;;;;;;;5.62;100.00;102630.06;5055882;28;20117;-66
2022/10/19 04:07:43;;;;;;;20.95;9.07;;;;;;;5.54;100.00;102632.31;5055470;28;20056;-66
2022/10/19 04:10:08;;;;;;;21.05;9.15;;;;;;;5.49;100.00;102629.44;5055426;28;20033;-66
2022/10/19 04:12:34;;;;;;;20.85;8.70;;;;;;;5.44;100.00;102625.66;5055694;28;20083;-66
2022/10/19 04:14:59;;;;;;;22.17;8.75;;;;;;;5.46;100.00;102625.72;5055324;28;20025;-66
2022/10/19 04:17:25;;;;;;;20.98;8.82;;;;;;;5.46;100.00;102618.78;5055278;28;20017;-66
2022/10/19 04:19:50;;;;;;;22.75;9.82;;;;;;;5.48;100.00;102611.88;5055401;28;20028;-66
2022/10/19 04:22:15;;;;;;;21.92;9.65;;;;;;;5.44;100.00;102614.28;5055377;28;20104;-66
2022/10/19 04:24:41;;;;;;;22.40;9.75;;;;;;;5.45;100.00;102614.34;5055095;28;20028;-65
2022/10/19 04:27:06;;;;;;;21.98;9.90;;;;;;;5.38;100.00;102615.72;5055333;28;20052;-64
2022/10/19 04:29:31;;;;;;;22.17;9.27;;;;;;;5.34;100.00;102618.09;5055071;28;20040;-64
2022/10/19 04:31:57;;;;;;;22.73;10.18;;;;;;;5.28;100.00;102612.53;5055073;28;20502;-63
2022/10/19 04:34:23;;;;;;;24.80;10.90;;;;;;;5.33;100.00;102605.81;5054958;28;20029;-64
2022/10/19 04:36:48;;;;;;;22.85;11.30;;;;;;;5.33;100.00;102609.34;5055012;28;20104;-64
2022/10/19 04:39:13;;;;;;;24.65;11.20;;;;;;;5.34;100.00;102602.38;5055392;28;20120;-64
2022/10/19 04:41:39;;;;;;;24.40;11.38;;;;;;;5.36;100.00;102604.25;5054645;28;20399;-64
2022/10/19 04:44:05;;;;;;;25.23;11.95;;;;;;;5.38;100.00;102610.47;5055049;28;20025;-65
2022/10/19 04:46:31;;;;;;;24.50;11.52;;;;;;;5.23;100.00;102615.81;5054929;28;20105;-64
2022/10/19 04:48:57;;;;;;;24.67;11.20;;;;;;;5.17;100.00;102610.25;5054950;28;20120;-64
2022/10/19 04:51:23;;;;;;;22.85;10.85;;;;;;;5.12;100.00;102601.19;5054969;28;20025;-64
2022/10/19 04:53:49;;;;;;;23.83;10.85;;;;;;;5.06;100.00;102601.75;5054711;28;20036;-64
2022/10/19 04:56:18;;;;;;;25.73;11.95;;;;;;;5.14;100.00;102615.31;5050789;28;20017;-64
2022/10/19 04:58:44;;;;;;;24.73;12.13;;;;;;;5.15;100.00;102605.72;5054817;28;20139;-64
2022/10/19 05:01:20;;;;;;;25.80;12.35;;;;;;;5.14;100.00;102609.16;5054481;28;20040;-64
2022/10/19 05:03:46;;;;;;;25.67;11.95;;;;;;;5.07;100.00;102608.81;5050942;28;20029;-64
2022/10/19 05:06:13;;;;;;;24.40;11.73;;;;;;;5.09;100.00;102605.38;5053754;28;20459;-64
2022/10/19 05:08:39;;;;;;;26.73;12.25;;;;;;;5.06;100.00;102608.75;5047598;28;20036;-64
2022/10/19 05:11:13;;;;;;;26.00;12.07;;;;;;;5.09;100.00;102611.53;5054485;28;20047;-64
2022/10/19 05:13:39;;;;;;;26.35;12.27;;;;;;;5.09;100.00;102610.63;5053591;28;20036;-64
2022/10/19 05:16:06;;;;;;;26.70;12.60;;;;;;;5.11;100.00;102614.22;5054337;28;20028;-64
2022/10/19 05:18:33;;;;;;;26.55;12.73;;;;;;;5.08;100.00;102609.72;5054269;28;20444;-64
2022/10/19 05:21:12;;;;;;;26.60;11.90;;;;;;;5.05;100.00;102605.22;5054274;28;20028;-64
2022/10/19 05:23:39;;;;;;;26.20;13.35;;;;;;;5.10;100.00;102605.47;5050719;28;20048;-64
2022/10/19 05:26:10;;;;;;;27.13;12.95;;;;;;;5.11;100.00;102608.97;5054570;28;20025;-64
2022/10/19 05:28:36;;;;;;;26.63;13.00;;;;;;;5.09;100.00;102603.66;5053793;28;20456;-64
2022/10/19 05:31:06;;;;;;;26.85;12.90;;;;;;;5.02;100.00;102598.91;5053784;28;20032;-64
2022/10/19 05:33:31;;;;;;;27.13;12.77;;;;;;;4.92;100.00;102589.63;5054134;28;20033;-64
2022/10/19 05:35:56;;;;;;;31.92;14.98;;;;;;;4.94;100.00;102585.38;5054251;28;20027;-64
2022/10/19 05:38:22;;;;;;;26.58;13.85;;;;;;;4.95;100.00;102576.72;5054085;28;20337;-64
2022/10/19 05:40:47;;;;;;;26.75;14.00;;;;;;;4.92;100.00;102576.50;5049622;28;20033;-63
2022/10/19 05:43:12;;;;;;;27.38;14.00;;;;;;;4.91;100.00;102579.97;5046311;28;20052;-61
2022/10/19 05:45:37;;;;;;;30.10;14.68;;;;;;;4.91;100.00;102579.03;5046043;28;20469;-60
2022/10/19 05:48:03;;;;;;;27.85;14.75;;;;;;;4.88;100.00;102582.44;5049101;28;20108;-62
2022/10/19 05:50:28;;;;;;;27.85;14.07;;;;;;;4.82;100.00;102576.81;5044157;28;20112;-63
2022/10/19 05:52:54;;;;;;;30.42;16.10;;;;;;;4.92;100.00;102583.47;5045925;28;20467;-62
2022/10/19 05:55:19;;;;;;;30.38;15.55;;;;;;;4.83;100.00;102582.16;5046218;28;20178;-63
2022/10/19 05:57:44;;;;;;;29.95;15.93;;;;;;;4.88;100.00;102579.81;5048190;28;20036;-62
2022/10/19 06:00:10;;;;;;;30.23;16.33;;;;;;;4.92;100.00;102586.09;5047602;28;20048;-63
2022/10/19 06:02:35;;;;;;;29.30;15.77;;;;;;;4.81;100.00;102589.03;5044471;28;20025;-62
2022/10/19 06:05:01;;;;;;;29.40;15.82;;;;;;;4.81;100.00;102583.78;5046338;28;20021;-61
2022/10/19 06:07:26;;;;;;;31.55;16.05;;;;;;;4.74;100.00;102581.66;5043434;28;20040;-65
2022/10/19 06:09:51;;;;;;;29.25;15.90;;;;;;;4.81;100.00;102583.78;5044591;28;20112;-73
2022/10/19 06:12:19;;;;;;;32.50;16.92;;;;;;;4.83;100.00;102570.78;5046853;28;20112;-74
2022/10/19 06:14:44;;;;;;;31.45;16.75;;;;;;;4.84;100.00;102568.22;5045388;28;20091;-63
2022/10/19 06:17:09;;;;;;;29.75;17.30;;;;;;;4.85;100.00;102572.66;5049869;28;20025;-63
2022/10/19 06:19:35;;;;;;;30.77;16.48;;;;;;;4.85;100.00;102563.91;5047668;28;20033;-62
2022/10/19 06:22:01;;;;;;;31.92;17.65;;;;;;;4.87;100.00;102563.16;5045084;28;20369;-62
2022/10/19 06:24:26;;;;;;;33.25;17.63;;;;;;;4.93;100.00;102572.19;5044327;28;20029;-62
2022/10/19 06:26:51;;;;;;;33.65;19.50;;;;;;;4.95;100.00;102565.31;5045518;28;20108;-62
2022/10/19 06:29:17;;;;;;;32.00;18.10;;;;;;;4.92;100.00;102568.66;5043200;28;20472;-62
2022/10/19 06:31:42;;;;;;;32.72;18.20;;;;;;;4.91;100.00;102576.44;5045543;28;20112;-61
2022/10/19 06:34:07;;;;;;;32.05;18.20;;;;;;;4.91;100.00;102576.44;5047366;28;20048;-62
2022/10/19 06:36:33;;;;;;;33.83;19.02;;;;;;;5.00;100.00;102574.34;5047325;28;20472;-62
2022/10/19 06:39:00;;;;;;;35.40;19.55;;;;;;;4.96;100.00;102565.38;5044266;28;20029;-62
2022/10/19 06:41:26;;;;;;;33.63;18.90;;;;;;;4.93;100.00;102577.44;5044643;28;20112;-62
2022/10/19 06:43:53;;;;;;;33.05;19.33;;;;;;;4.96;100.00;102577.59;5045575;28;20024;-62
2022/10/19 06:46:22;;;;;;;32.17;19.77;;;;;;;5.02;100.00;102577.94;5044626;28;20390;-61
2022/10/19 06:48:51;;;;;;;33.63;19.75;;;;;;;5.00;100.00;102580.47;5046961;28;20028;-61
2022/10/19 06:51:17;;;;;;;35.05;19.90;;;;;;;5.15;100.00;102582.13;5039040;28;20032;-62
2022/10/19 06:53:42;;;;;;;35.00;20.33;;;;;;;5.18;100.00;102579.66;5041615;28;20100;-68
2022/10/19 06:56:08;;;;;;;35.78;21.52;;;;;;;5.28;100.00;102581.97;5047620;28;20025;-71
2022/10/19 06:58:35;;;;;;;35.00;21.33;;;;;;;5.35;100.00;102581.47;5048529;28;20021;-71
2022/10/19 07:01:01;;;;;;;35.30;21.30;;;;;;;5.44;100.00;102572.28;5043532;28;20056;-68
2022/10/19 07:03:28;;;;;;;34.45;21.30;;;;;;;5.49;100.00;102576.97;5047656;28;20025;-68
2022/10/19 07:05:55;;;;;;;35.03;21.90;;;;;;;5.57;100.00;102575.63;5044106;28;20027;-66
2022/10/19 07:08:21;;;;;;;35.35;21.70;;;;;;;5.61;100.00;102575.78;5044802;28;20076;-73
2022/10/19 07:10:52;;;;;;;35.40;21.75;;;;;;;5.64;100.00;102573.34;5046726;28;20029;-71
2022/10/19 07:13:18;;;;;;;34.20;21.50;;;;;;;5.70;100.00;102571.94;5048836;28;20032;-72
2022/10/19 07:15:43;;;;;;;36.20;22.35;;;;;;;5.77;100.00;102588.91;5050910;28;20105;-74
2022/10/19 07:18:08;;;;;;;36.95;22.13;;;;;;;5.85;100.00;102581.41;5042295;28;20523;-72
2022/10/19 07:20:34;;;;;;;37.00;22.05;;;;;;;5.89;100.00;102586.91;5040255;28;20380;-69
2022/10/19 07:22:59;;;;;;;36.70;22.45;;;;;;;5.99;100.00;102587.41;5043469;28;20120;-71
2022/10/19 07:25:25;;;;;;;34.95;21.42;;;;;;;6.10;100.00;102586.22;5040229;28;20017;-74
2022/10/19 07:27:50;;;;;;;36.88;22.27;;;;;;;6.20;100.00;102585.84;5044601;28;20103;-70
2022/10/19 07:30:16;;;;;;;33.60;21.75;;;;;;;6.23;100.00;102582.47;5044248;28;20112;-74
2022/10/19 07:32:41;;;;;;;35.10;21.08;;;;;;;6.33;100.00;102581.22;5045106;28;20021;-69
2022/10/19 07:35:06;;;;;;;33.95;20.70;;;;;;;6.33;100.00;102579.50;5043888;28;20431;-70
2022/10/19 07:37:32;;;;;;;33.80;19.98;;;;;;;6.44;100.00;102580.94;5047891;28;20079;-68
2022/10/19 07:39:57;;;;;;;34.50;20.27;;;;;;;6.53;100.00;102582.22;5047540;28;20020;-67
2022/10/19 07:42:22;;;;;;;32.50;20.08;;;;;;;6.62;100.00;102575.66;5049331;28;20037;-67
2022/10/19 07:44:48;;;;;;;31.58;19.85;;;;;;;6.72;100.00;102576.13;5049192;28;20465;-67
2022/10/19 07:47:13;;;;;;;31.90;19.08;;;;;;;6.81;100.00;102579.16;5049804;28;20022;-67
2022/10/19 07:49:38;;;;;;;30.15;18.20;;;;;;;6.88;100.00;102568.09;5050483;28;20554;-67
2022/10/19 07:52:04;;;;;;;32.40;18.45;;;;;;;7.05;100.00;102566.28;5048261;28;20033;-67
2022/10/19 07:54:29;;;;;;;30.45;18.02;;;;;;;7.17;100.00;102571.19;5052603;28;20013;-64
2022/10/19 07:56:54;;;;;;;30.73;16.95;;;;;;;7.24;100.00;102570.66;5047158;28;20061;-65
2022/10/19 07:59:20;;;;;;;29.58;16.38;;;;;;;7.28;100.00;102569.03;5049429;28;20028;-65
2022/10/19 08:01:47;;;;;;;26.60;16.00;;;;;;;7.34;100.00;102561.44;5051821;28;20395;-65
2022/10/19 08:04:12;;;;;;;28.63;15.80;;;;;;;7.39;100.00;102564.28;5042983;28;20013;-64
2022/10/19 08:06:38;;;;;;;27.60;15.65;;;;;;;7.44;100.00;102560.09;5050489;28;20032;-66
2022/10/19 08:09:04;;;;;;;28.77;15.88;;;;;;;7.53;100.00;102560.53;5055655;28;20021;-64
2022/10/19 08:11:32;;;;;;;28.92;16.30;;;;;;;7.65;100.00;102558.44;5055568;28;20029;-64
2022/10/19 08:13:58;;;;;;;29.25;15.50;;;;;;;7.80;100.00;102558.19;5051651;28;20181;-65
2022/10/19 08:16:39;;;;;;;26.85;15.00;;;;;;;7.95;100.00;102560.59;5055784;28;20512;-65
2022/10/19 08:19:08;;;;;;;26.42;14.15;;;;;;;8.05;100.00;102568.88;5044779;28;20113;-65
2022/10/19 08:21:35;;;;;;;29.10;13.57;;;;;;;8.09;100.00;102568.16;5053316;28;20059;-64
2022/10/19 08:24:01;;;;;;;25.40;13.18;;;;;;;8.15;100.00;102558.78;5055215;28;20037;-63
2022/10/19 08:26:32;;;;;;;26.25;13.70;;;;;;;8.24;100.00;102555.63;5055324;28;20129;-64
2022/10/19 08:29:01;;;;;;;25.00;13.07;;;;;;;8.32;100.00;102545.41;5055117;28;20025;-64
2022/10/19 08:31:28;;;;;;;25.25;12.77;;;;;;;8.42;100.00;102531.78;5054955;28;20557;-63
2022/10/19 08:33:54;;;;;;;24.95;13.15;;;;;;;8.49;100.00;102531.22;5055217;28;20041;-63
2022/10/19 08:36:20;;;;;;;25.75;12.63;;;;;;;8.61;100.00;102530.78;5055037;28;20028;-63
2022/10/19 08:38:47;;;;;;;25.13;11.43;;;;;;;8.69;100.00;102521.47;5055040;28;20033;-63
2022/10/19 08:41:31;;;;;;;24.77;11.88;;;;;;;8.84;100.00;102523.78;5055122;28;20027;-64
2022/10/19 08:44:31;;;;;;;25.83;12.13;;;;;;;9.05;100.00;102523.69;5054916;28;20041;-63
2022/10/19 08:47:20;;;;;;;25.30;11.02;;;;;;;9.22;100.00;102520.78;5053135;28;20029;-64
2022/10/19 08:49:45;;;;;;;24.65;10.15;;;;;;;9.36;100.00;102511.63;5051835;28;20060;-63
2022/10/19 08:52:15;;;;;;;24.58;10.70;;;;;;;9.47;100.00;102517.28;5052502;28;20063;-63
2022/10/19 08:54:55;;;;;;;25.63;10.20;;;;;;;9.55;100.00;102512.25;5048302;28;20434;-62
2022/10/19 08:57:36;;;;;;;24.52;10.25;;;;;;;9.67;100.00;102515.34;5054591;28;20035;-65
2022/10/19 09:00:13;;;;;;;24.42;10.48;;;;;;;9.88;100.00;102514.28;5051536;28;20095;-65
2022/10/19 09:02:53;;;;;;;23.15;9.52;;;;;;;10.24;100.00;102516.34;5052323;28;20409;-65
2022/10/19 09:05:37;;;;;;;24.60;9.75;;;;;;;10.54;100.00;102512.91;5050762;28;20061;-65
2022/10/19 09:08:03;;;;;;;23.30;9.02;;;;;;;10.68;100.00;102508.94;5048828;28;20030;-65
2022/10/19 09:10:33;;;;;;;21.40;8.05;;;;;;;10.67;100.00;102504.47;5047865;28;20103;-63
2022/10/19 09:13:02;;;;;;;22.75;7.97;;;;;;;10.65;100.00;102503.56;5048289;28;20072;-63
2022/10/19 09:15:40;;;;;;;21.02;7.80;;;;;;;10.86;100.00;102502.41;5044484;28;20546;-61
2022/10/19 09:18:18;;;;;;;20.83;7.50;;;;;;;11.19;100.00;102501.59;5048863;28;20045;-62
2022/10/19 09:20:47;;;;;;;22.60;7.15;;;;;;;11.24;100.00;102503.50;5048650;28;20025;-63
2022/10/19 09:23:30;;;;;;;20.92;7.13;;;;;;;11.35;100.00;102509.09;5050230;28;20036;-62
2022/10/19 09:25:56;;;;;;;20.42;6.30;;;;;;;11.50;100.00;102509.53;5046168;28;20033;-62
2022/10/19 09:28:37;;;;;;;21.55;6.68;;;;;;;11.66;100.00;102528.47;5046185;28;20021;-61
2022/10/19 09:31:03;;;;;;;20.02;6.18;;;;;;;11.69;100.00;102510.91;5048287;28;20029;-62
2022/10/19 09:33:37;;;;;;;20.20;5.97;;;;;;;11.90;100.00;102508.75;5047327;28;20027;-69
2022/10/19 09:36:05;;;;;;;20.52;5.72;;;;;;;12.10;100.00;102506.63;5045856;28;20036;-62
2022/10/19 09:38:31;;;;;;;19.85;5.75;;;;;;;12.23;100.00;102500.75;5046065;28;20078;-61
2022/10/19 09:40:58;;;;;;;22.60;5.80;;;;;;;12.28;100.00;102508.84;5051686;28;20573;-62
2022/10/19 09:43:25;;;;;;;19.75;5.72;;;;;;;12.33;100.00;102505.44;5045648;28;20400;-65
2022/10/19 09:46:01;;;;;;;20.98;5.70;;;;;;;12.41;100.00;102499.41;5049388;28;20112;-64
2022/10/19 09:48:32;;;;;;;19.42;5.78;;;;;;;12.47;100.00;102505.75;5041606;28;20045;-62
2022/10/19 09:51:02;;;;;;;20.73;5.90;;;;;;;12.78;100.00;102495.81;5048809;28;20021;-64
2022/10/19 09:53:28;;;;;;;18.35;5.60;;;;;;;13.29;100.00;102490.66;5046840;28;20554;-65
2022/10/19 09:56:06;;;;;;;18.58;5.65;;;;;;;13.82;100.00;102493.41;5046271;28;20082;-63
2022/10/19 09:58:33;;;;;;;19.52;5.15;;;;;;;14.30;100.00;102488.88;5046461;28;20013;-63
2022/10/19 10:00:58;;;;;;;19.83;5.00;;;;;;;14.57;100.00;102471.50;5048683;28;20033;-62
2022/10/19 10:03:35;;;;;;;19.00;4.88;;;;;;;15.17;100.00;102472.25;5047003;28;20040;-62
2022/10/19 10:06:09;;;;;;;18.00;4.82;;;;;;;15.76;100.00;102467.53;5046021;28;20390;-66
2022/10/19 10:08:44;;;;;;;19.00;4.90;;;;;;;15.96;100.00;102470.34;5046293;28;20170;-66
2022/10/19 10:11:13;;;;;;;17.55;4.50;;;;;;;16.27;100.00;102467.94;5044967;28;20078;-66
2022/10/19 10:13:47;;;;;;;18.00;4.88;;;;;;;16.42;100.00;102465.34;5045015;28;20033;-66
2022/10/19 10:16:19;;;;;;;19.27;4.88;;;;;;;16.39;100.00;102471.53;5044923;28;20017;-65
2022/10/19 10:18:53;;;;;;;17.65;4.60;;;;;;;16.13;100.00;102473.16;5046954;28;20024;-66
2022/10/19 10:21:27;;;;;;;19.08;4.95;;;;;;;16.26;100.00;102475.03;5049203;28;20036;-65
2022/10/19 10:24:01;;;;;;;17.42;4.65;;;;;;;16.62;100.00;102484.13;5042895;28;20421;-65
2022/10/19 10:26:27;;;;;;;19.55;4.65;;;;;;;17.12;100.00;102476.34;5045445;28;20052;-65
2022/10/19 10:28:53;;;;;;;17.60;4.15;;;;;;;17.87;100.00;102476.47;5045085;28;20471;-65
2022/10/19 10:31:23;;;;;;;16.23;4.13;;;;;;;18.57;100.00;102479.06;5045119;28;20115;-66
2022/10/19 10:33:56;;;;;;;18.75;4.13;;;;;;;19.14;100.00;102460.06;5044210;28;20021;-64
2022/10/19 10:36:24;;;;;;;17.83;3.90;;;;;;;19.55;100.00;102458.88;5043837;28;20113;-62
2022/10/19 10:38:52;;;;;;;17.33;3.80;;;;;;;19.50;100.00;102448.19;5050149;28;20116;-62
2022/10/19 10:41:24;;;;;;;16.75;3.97;;;;;;;19.74;100.00;102462.31;5045923;28;20028;-63
2022/10/19 10:43:54;;;;;;;14.30;3.95;;;;;;;20.23;100.00;102446.66;5046551;28;20040;-64
2022/10/19 10:46:25;;;;;;;17.08;3.90;;;;;;;20.64;100.00;102454.25;5045523;28;20033;-62
2022/10/19 10:48:54;;;;;;;17.63;3.88;;;;;;;21.15;100.00;102434.78;5046290;28;20498;-63
2022/10/19 10:51:47;;;;;;;18.40;4.30;;;;;;;21.03;75.23;102451.13;5045244;28;20037;-63
2022/10/19 10:54:23;;;;;;;16.63;4.00;;;;;;;21.11;73.79;102445.63;5046889;28;20418;-63
2022/10/19 10:57:11;;;;;;;18.33;4.10;;;;;;;20.72;73.82;102436.28;5045807;28;20021;-62
2022/10/19 10:59:39;;;;;;;17.35;4.30;;;;;;;20.85;71.82;102439.72;5043492;28;20033;-61
2022/10/19 11:02:24;;;;;;;17.00;4.40;;;;;;;21.20;72.56;102430.25;5044299;28;20095;-62
2022/10/19 11:05:00;;;;;;;16.52;3.95;;;;;;;21.06;71.33;102432.25;5044616;28;20112;-69
2022/10/19 11:07:28;;;;;;;18.00;4.30;;;;;;;21.62;69.73;102426.91;5043871;28;20028;-67
2022/10/19 11:10:12;;;;;;;17.55;4.30;;;;;;;22.15;63.65;102425.97;5046932;28;20031;-66
2022/10/19 11:12:42;;;;;;;17.27;4.38;;;;;;;22.69;57.51;102411.41;5049600;28;20422;-66
2022/10/19 11:15:36;;;;;;;17.02;4.40;;;;;;;23.45;55.14;102410.59;5050766;28;20025;-72
2022/10/19 11:18:20;;;;;;;17.70;4.40;;;;;;;23.33;46.35;102409.97;5049595;28;20025;-65
2022/10/19 11:20:59;;;;;;;17.10;4.60;;;;;;;22.82;46.42;102399.47;5053296;28;20064;-69